createdAt,value
2022-11-30T00:00:30.483Z,6.5
2022-11-30T00:21:46.139Z,5.9
2022-11-30T00:37:41.268Z,5.5
2022-11-30T00:58:57.760Z,6.7
2022-11-30T01:20:14.726Z,6.9
2022-11-30T01:30:48.018Z,5.9
2022-11-30T01:52:04.281Z,9.2
2022-11-30T02:13:20.841Z,8.5
2022-11-30T02:23:58.006Z,17.3
2022-11-30T02:29:10.322Z,20.2
2022-11-30T02:34:26.087Z,22.6
2022-11-30T02:39:37.707Z,24.9
2022-11-30T02:50:15.229Z,28.6
2022-11-30T02:55:27.924Z,32.4
2022-11-30T03:06:01.239Z,31.4
2022-11-30T03:21:58.216Z,30.9
2022-11-30T03:27:10.304Z,31
2022-11-30T03:48:26.792Z,31.4
2022-11-30T03:53:40.464Z,39.7
2022-11-30T03:58:57.117Z,30
2022-11-30T04:09:30.034Z,30.2
2022-11-30T04:14:42.378Z,28.4
2022-11-30T04:36:02.854Z,25.7
2022-11-30T04:41:09.382Z,26.5
2022-11-30T04:46:23.932Z,32.9
2022-11-30T04:56:54.525Z,21.8
2022-11-30T05:02:10.471Z,20.2
2022-11-30T05:07:21.617Z,18.9
2022-11-30T05:12:37.416Z,18.1
2022-11-30T05:17:52.397Z,19.8
2022-11-30T05:28:24.540Z,19.2
2022-11-30T05:33:39.993Z,17.9
2022-11-30T05:38:56.288Z,18
2022-11-30T05:49:30.582Z,18.1
2022-11-30T06:00:05.755Z,16.2
2022-11-30T06:10:44.829Z,16
2022-11-30T06:15:53.709Z,19.1
2022-11-30T06:21:09.821Z,14.4
2022-11-30T06:26:22.196Z,12
2022-11-30T06:31:34.181Z,12.7
2022-11-30T06:36:45.612Z,14.1
2022-11-30T06:41:59.482Z,14.7
2022-11-30T06:52:35.090Z,10
2022-11-30T06:57:47.698Z,10.8
2022-11-30T07:19:02.300Z,11.5
2022-11-30T07:29:32.934Z,11.1
2022-11-30T07:34:46.711Z,11.1
2022-11-30T07:39:57.672Z,10.9
2022-11-30T07:45:09.530Z,11.7
2022-11-30T07:55:43.906Z,13.2
2022-11-30T08:00:55.123Z,13
2022-11-30T08:06:11.153Z,13.6
2022-11-30T08:11:22.033Z,15.9
2022-11-30T08:16:33.488Z,14.4
2022-11-30T08:32:31.708Z,12.7
2022-11-30T08:37:44.423Z,12.9
2022-11-30T08:43:00.449Z,15.9
2022-11-30T08:48:15.024Z,13.9
2022-11-30T08:53:30.062Z,19
2022-11-30T08:58:41.456Z,15.5
2022-11-30T09:03:54.574Z,15.3
2022-11-30T09:09:10.522Z,16
2022-11-30T09:14:20.818Z,16.1
2022-11-30T09:19:36.620Z,17.4
2022-11-30T09:24:48.142Z,18.1
2022-11-30T09:29:59.474Z,16.3
2022-11-30T09:40:36.886Z,15.2
2022-11-30T09:45:53.325Z,16.4
2022-11-30T09:51:11.138Z,15.6
2022-11-30T09:56:20.136Z,15.3
2022-11-30T10:01:37.682Z,15.2
2022-11-30T10:06:43.681Z,15.2
2022-11-30T10:11:55.311Z,15.6
2022-11-30T10:17:07.532Z,15.1
2022-11-30T10:22:23.577Z,15.4
2022-11-30T10:27:35.336Z,16.8
2022-11-30T10:32:51.674Z,15.9
2022-11-30T10:38:05.292Z,21.9
2022-11-30T10:43:16.090Z,16.8
2022-11-30T10:48:28.389Z,18.1
2022-11-30T10:53:39.612Z,20
2022-11-30T10:58:49.988Z,24.6
2022-11-30T11:04:01.502Z,23.3
2022-11-30T11:09:16.982Z,16.9
2022-11-30T11:14:38.570Z,14.8
2022-11-30T11:25:05.924Z,13.6
2022-11-30T11:41:00.832Z,12.5
2022-11-30T11:51:34.554Z,12.9
2022-11-30T11:56:48.906Z,13.1
2022-11-30T12:02:02.447Z,12.6
2022-11-30T12:07:18.558Z,12.6
2022-11-30T12:12:30.591Z,11.6
2022-11-30T12:17:40.613Z,16.5
2022-11-30T12:22:53.237Z,12.4
2022-11-30T12:38:48.420Z,11.1
2022-11-30T12:49:20.633Z,10.4
2022-11-30T12:54:32.491Z,11.5
2022-11-30T12:59:44.619Z,11.2
2022-11-30T13:10:21.849Z,10.1
2022-11-30T13:15:33.849Z,9.6
2022-11-30T13:20:44.114Z,8.6
2022-11-30T13:31:15.748Z,8.7
2022-11-30T13:36:27.089Z,8.8
2022-11-30T13:41:39.291Z,8.6
2022-11-30T13:46:51.362Z,8.8
2022-11-30T14:02:46.054Z,8.5
2022-11-30T14:07:59.113Z,9
2022-11-30T14:13:11.021Z,8.6
2022-11-30T14:29:05.486Z,9.5
2022-11-30T14:34:16.936Z,9.8
2022-11-30T14:39:29.284Z,9.9
2022-11-30T14:44:41.182Z,9.2
2022-11-30T14:49:52.867Z,9.6
2022-11-30T15:05:51.874Z,8.6
2022-11-30T15:11:02.854Z,8.2
2022-11-30T15:32:20.494Z,11.3
2022-11-30T15:42:53.493Z,12.2
2022-11-30T15:48:09.017Z,11.7
2022-11-30T16:04:02.564Z,13.3
2022-11-30T16:09:16.514Z,17.6
2022-11-30T16:14:26.753Z,16.9
2022-11-30T16:19:39.046Z,13.8
2022-11-30T16:30:19.896Z,13.2
2022-11-30T16:35:30.464Z,12.8
2022-11-30T16:40:39.895Z,17.9
2022-11-30T16:45:56.391Z,14.1
2022-11-30T16:51:05.124Z,17.7
2022-11-30T16:56:17.115Z,14.5
2022-11-30T17:12:10.317Z,15.5
2022-11-30T17:22:45.323Z,15.2
2022-11-30T17:28:00.483Z,16
2022-11-30T17:33:11.235Z,15.8
2022-11-30T17:43:44.205Z,15.4
2022-11-30T17:48:56.335Z,14.3
2022-11-30T17:59:29.451Z,15
2022-11-30T18:04:41.993Z,15.1
2022-11-30T18:15:21.112Z,16.3
2022-11-30T18:20:30.780Z,17.1
2022-11-30T18:36:25.861Z,19.2
2022-11-30T18:57:42.227Z,19.1
2022-11-30T19:02:54.333Z,21
2022-11-30T19:08:07.030Z,22.6
2022-11-30T19:13:16.950Z,21.1
2022-11-30T19:18:29.422Z,23.1
2022-11-30T19:23:41.220Z,24.1
2022-11-30T19:28:54.570Z,25.7
2022-11-30T19:34:13.495Z,24.7
2022-11-30T19:39:17.775Z,25.1
2022-11-30T19:44:29.526Z,25.8
2022-11-30T19:49:40.451Z,27.8
2022-11-30T20:05:34.329Z,26.9
2022-11-30T20:10:46.722Z,27.3
2022-11-30T20:21:19.656Z,27.2
2022-11-30T20:26:40.329Z,34.5
2022-11-30T20:31:54.846Z,28.5
2022-11-30T20:37:09.109Z,26.6
2022-11-30T20:42:24.667Z,27.2
2022-11-30T20:47:35.552Z,26.4
2022-11-30T20:52:46.850Z,27.7
2022-11-30T20:57:58.586Z,28
2022-11-30T21:19:16.988Z,29
2022-11-30T21:29:48.776Z,29.4
2022-11-30T21:34:59.863Z,31.2
2022-11-30T21:40:11.751Z,30.4
2022-11-30T21:50:44.574Z,31.8
2022-11-30T22:06:39.132Z,33.6
2022-11-30T22:11:51.099Z,32.8
2022-11-30T22:33:09.320Z,31.7
2022-11-30T22:38:22.638Z,34.6
2022-11-30T22:43:34.312Z,34.4
2022-11-30T22:48:43.245Z,43.2
2022-11-30T22:53:52.201Z,39.7
2022-11-30T22:59:04.647Z,31.9
2022-11-30T23:04:13.323Z,41.5
2022-11-30T23:09:24.353Z,34.4
2022-11-30T23:19:57.161Z,31.9
2022-11-30T23:25:08.782Z,32.3
2022-11-30T23:30:28.951Z,31.6
2022-11-30T23:35:35.527Z,43.5
2022-11-30T23:40:50.157Z,34.2
2022-11-30T23:51:23.965Z,30.6
2022-11-30T23:56:33.837Z,32.2
